sensor_id;sensor_type;location;lat;lon;timestamp;temperature;humidity
6206;DHT22;3136;48.788;9.772;2024-01-11T00:01:04;-6.20;58.50
6206;DHT22;3136;48.788;9.772;2024-01-11T00:03:29;-6.20;87.30
6206;DHT22;3136;48.788;9.772;2024-01-11T00:05:55;-6.20;71.80
6206;DHT22;3136;48.788;9.772;2024-01-11T00:08:20;-6.20;87.00
6206;DHT22;3136;48.788;9.772;2024-01-11T00:10:46;-6.20;99.90
6206;DHT22;3136;48.788;9.772;2024-01-11T00:13:11;-6.30;1.00
6206;DHT22;3136;48.788;9.772;2024-01-11T00:15:37;-6.20;1.00
6206;DHT22;3136;48.788;9.772;2024-01-11T00:18:03;-6.20;1.00
6206;DHT22;3136;48.788;9.772;2024-01-11T00:20:28;-6.20;1.00
6206;DHT22;3136;48.788;9.772;2024-01-11T00:22:54;-6.20;1.00
6206;DHT22;3136;48.788;9.772;2024-01-11T00:25:20;-6.20;99.90
6206;DHT22;3136;48.788;9.772;2024-01-11T00:27:45;-6.20;1.00
6206;DHT22;3136;48.788;9.772;2024-01-11T00:30:11;-6.20;1.00
6206;DHT22;3136;48.788;9.772;2024-01-11T00:32:36;-6.30;1.00
6206;DHT22;3136;48.788;9.772;2024-01-11T00:35:02;-6.30;1.00
6206;DHT22;3136;48.788;9.772;2024-01-11T00:37:27;-6.30;1.00
6206;DHT22;3136;48.788;9.772;2024-01-11T00:39:53;-6.30;13.60
6206;DHT22;3136;48.788;9.772;2024-01-11T00:42:18;-6.30;99.90
6206;DHT22;3136;48.788;9.772;2024-01-11T00:44:44;-6.40;99.90
6206;DHT22;3136;48.788;9.772;2024-01-11T00:47:10;-6.30;99.90
6206;DHT22;3136;48.788;9.772;2024-01-11T00:49:36;-6.30;99.90
6206;DHT22;3136;48.788;9.772;2024-01-11T00:52:02;-6.40;14.40
6206;DHT22;3136;48.788;9.772;2024-01-11T00:54:27;-6.40;1.00
6206;DHT22;3136;48.788;9.772;2024-01-11T00:56:53;-6.40;9.90
6206;DHT22;3136;48.788;9.772;2024-01-11T00:59:18;-6.40;99.90
6206;DHT22;3136;48.788;9.772;2024-01-11T01:01:50;-6.40;1.00
6206;DHT22;3136;48.788;9.772;2024-01-11T01:04:15;-6.40;1.00
6206;DHT22;3136;48.788;9.772;2024-01-11T01:06:42;-6.40;99.90
6206;DHT22;3136;48.788;9.772;2024-01-11T01:09:08;-6.40;99.90
6206;DHT22;3136;48.788;9.772;2024-01-11T01:11:33;-6.40;99.90
6206;DHT22;3136;48.788;9.772;2024-01-11T01:13:59;-6.40;99.90
6206;DHT22;3136;48.788;9.772;2024-01-11T01:16:24;-6.40;99.90
6206;DHT22;3136;48.788;9.772;2024-01-11T01:18:50;-6.40;99.90
6206;DHT22;3136;48.788;9.772;2024-01-11T01:21:16;-6.40;1.00
6206;DHT22;3136;48.788;9.772;2024-01-11T01:23:41;-6.40;1.00
6206;DHT22;3136;48.788;9.772;2024-01-11T01:26:07;-6.40;1.00
6206;DHT22;3136;48.788;9.772;2024-01-11T01:28:32;-6.50;99.90
6206;DHT22;3136;48.788;9.772;2024-01-11T01:30:58;-6.40;99.90
6206;DHT22;3136;48.788;9.772;2024-01-11T01:33:23;-6.50;92.80
6206;DHT22;3136;48.788;9.772;2024-01-11T01:35:49;-6.50;99.90
6206;DHT22;3136;48.788;9.772;2024-01-11T01:38:15;-6.50;99.90
6206;DHT22;3136;48.788;9.772;2024-01-11T01:40:41;-6.50;99.90
6206;DHT22;3136;48.788;9.772;2024-01-11T01:43:07;-6.60;99.90
6206;DHT22;3136;48.788;9.772;2024-01-11T01:45:34;-6.60;99.90
6206;DHT22;3136;48.788;9.772;2024-01-11T01:48:00;-6.60;99.90
6206;DHT22;3136;48.788;9.772;2024-01-11T01:50:26;-6.60;99.90
6206;DHT22;3136;48.788;9.772;2024-01-11T01:52:52;-6.60;1.00
6206;DHT22;3136;48.788;9.772;2024-01-11T01:55:19;-6.60;1.00
6206;DHT22;3136;48.788;9.772;2024-01-11T01:57:46;-6.60;1.00
6206;DHT22;3136;48.788;9.772;2024-01-11T02:00:13;-6.60;1.00
6206;DHT22;3136;48.788;9.772;2024-01-11T02:02:46;-6.70;99.90
6206;DHT22;3136;48.788;9.772;2024-01-11T02:05:16;-6.70;99.90
6206;DHT22;3136;48.788;9.772;2024-01-11T02:07:44;-6.70;1.00
6206;DHT22;3136;48.788;9.772;2024-01-11T02:10:10;-6.70;1.00
6206;DHT22;3136;48.788;9.772;2024-01-11T02:12:36;-6.80;1.00
6206;DHT22;3136;48.788;9.772;2024-01-11T02:15:05;-6.80;1.00
6206;DHT22;3136;48.788;9.772;2024-01-11T02:17:31;-6.80;1.00
6206;DHT22;3136;48.788;9.772;2024-01-11T02:19:57;-6.80;1.00
6206;DHT22;3136;48.788;9.772;2024-01-11T02:22:27;-6.80;1.00
6206;DHT22;3136;48.788;9.772;2024-01-11T02:24:54;-6.80;1.00
6206;DHT22;3136;48.788;9.772;2024-01-11T02:27:19;-6.80;1.00
6206;DHT22;3136;48.788;9.772;2024-01-11T02:29:45;-6.70;1.00
6206;DHT22;3136;48.788;9.772;2024-01-11T02:32:11;-6.90;1.00
6206;DHT22;3136;48.788;9.772;2024-01-11T02:34:37;-6.90;1.00
6206;DHT22;3136;48.788;9.772;2024-01-11T02:37:03;-6.90;1.00
6206;DHT22;3136;48.788;9.772;2024-01-11T02:39:29;-6.90;1.00
6206;DHT22;3136;48.788;9.772;2024-01-11T02:41:56;-6.80;1.00
6206;DHT22;3136;48.788;9.772;2024-01-11T02:44:22;-6.90;1.00
6206;DHT22;3136;48.788;9.772;2024-01-11T02:46:48;-6.90;1.00
6206;DHT22;3136;48.788;9.772;2024-01-11T02:49:13;-6.80;1.00
6206;DHT22;3136;48.788;9.772;2024-01-11T02:51:39;-6.90;1.00
6206;DHT22;3136;48.788;9.772;2024-01-11T02:54:05;-6.90;1.00
6206;DHT22;3136;48.788;9.772;2024-01-11T02:56:30;-7.00;1.00
6206;DHT22;3136;48.788;9.772;2024-01-11T02:58:56;-6.90;1.00
6206;DHT22;3136;48.788;9.772;2024-01-11T03:01:21;-7.00;1.00
6206;DHT22;3136;48.788;9.772;2024-01-11T03:03:47;-7.00;1.00
6206;DHT22;3136;48.788;9.772;2024-01-11T03:06:12;-7.00;1.00
6206;DHT22;3136;48.788;9.772;2024-01-11T03:08:39;-7.00;1.00
6206;DHT22;3136;48.788;9.772;2024-01-11T03:11:05;-7.10;1.00
6206;DHT22;3136;48.788;9.772;2024-01-11T03:13:31;-7.10;1.00
6206;DHT22;3136;48.788;9.772;2024-01-11T03:15:56;-7.10;1.00
6206;DHT22;3136;48.788;9.772;2024-01-11T03:18:22;-7.10;1.00
6206;DHT22;3136;48.788;9.772;2024-01-11T03:20:48;-7.00;1.00
6206;DHT22;3136;48.788;9.772;2024-01-11T03:23:13;-7.10;1.00
6206;DHT22;3136;48.788;9.772;2024-01-11T03:25:39;-7.10;1.00
6206;DHT22;3136;48.788;9.772;2024-01-11T03:28:05;-7.10;99.90
6206;DHT22;3136;48.788;9.772;2024-01-11T03:30:30;-7.10;6.60
6206;DHT22;3136;48.788;9.772;2024-01-11T03:32:56;-7.10;1.00
6206;DHT22;3136;48.788;9.772;2024-01-11T03:35:21;-7.10;50.70
6206;DHT22;3136;48.788;9.772;2024-01-11T03:37:47;-7.10;15.00
6206;DHT22;3136;48.788;9.772;2024-01-11T03:40:13;-7.20;1.00
6206;DHT22;3136;48.788;9.772;2024-01-11T03:42:39;-7.10;99.90
6206;DHT22;3136;48.788;9.772;2024-01-11T03:45:05;-7.10;99.90
6206;DHT22;3136;48.788;9.772;2024-01-11T03:47:31;-7.10;99.90
6206;DHT22;3136;48.788;9.772;2024-01-11T03:49:56;-7.00;99.90
6206;DHT22;3136;48.788;9.772;2024-01-11T03:52:22;-7.20;99.90
6206;DHT22;3136;48.788;9.772;2024-01-11T03:54:48;-7.10;99.90
6206;DHT22;3136;48.788;9.772;2024-01-11T03:57:14;-7.10;99.90
6206;DHT22;3136;48.788;9.772;2024-01-11T03:59:40;-7.10;99.90
6206;DHT22;3136;48.788;9.772;2024-01-11T04:02:06;-7.10;88.50
6206;DHT22;3136;48.788;9.772;2024-01-11T04:04:32;-7.10;99.90
6206;DHT22;3136;48.788;9.772;2024-01-11T04:06:58;-7.20;99.90
6206;DHT22;3136;48.788;9.772;2024-01-11T04:09:23;-7.20;94.80
6206;DHT22;3136;48.788;9.772;2024-01-11T04:11:49;-7.20;30.70
6206;DHT22;3136;48.788;9.772;2024-01-11T04:14:14;-7.20;2.70
6206;DHT22;3136;48.788;9.772;2024-01-11T04:16:43;-7.20;1.00
6206;DHT22;3136;48.788;9.772;2024-01-11T04:19:09;-7.20;22.70
6206;DHT22;3136;48.788;9.772;2024-01-11T04:21:35;-7.20;96.70
6206;DHT22;3136;48.788;9.772;2024-01-11T04:24:04;-7.20;82.60
6206;DHT22;3136;48.788;9.772;2024-01-11T04:26:31;-7.20;99.90
6206;DHT22;3136;48.788;9.772;2024-01-11T04:28:56;-7.10;99.90
6206;DHT22;3136;48.788;9.772;2024-01-11T04:31:23;-7.20;99.90
6206;DHT22;3136;48.788;9.772;2024-01-11T04:33:49;-7.20;1.00
6206;DHT22;3136;48.788;9.772;2024-01-11T04:36:15;-7.30;1.00
6206;DHT22;3136;48.788;9.772;2024-01-11T04:38:40;-7.30;1.00
6206;DHT22;3136;48.788;9.772;2024-01-11T04:43:42;-7.30;1.00
6206;DHT22;3136;48.788;9.772;2024-01-11T04:46:19;-7.30;16.60
6206;DHT22;3136;48.788;9.772;2024-01-11T04:48:45;-7.30;27.40
6206;DHT22;3136;48.788;9.772;2024-01-11T04:51:12;-7.30;99.90
6206;DHT22;3136;48.788;9.772;2024-01-11T04:53:39;-7.20;99.90
6206;DHT22;3136;48.788;9.772;2024-01-11T04:56:06;-7.20;99.90
6206;DHT22;3136;48.788;9.772;2024-01-11T04:58:33;-7.20;69.90
6206;DHT22;3136;48.788;9.772;2024-01-11T05:00:59;-7.30;1.00
6206;DHT22;3136;48.788;9.772;2024-01-11T05:03:25;-7.30;99.90
6206;DHT22;3136;48.788;9.772;2024-01-11T05:05:51;-7.30;99.90
6206;DHT22;3136;48.788;9.772;2024-01-11T05:08:16;-7.30;99.90
6206;DHT22;3136;48.788;9.772;2024-01-11T05:10:42;-7.30;99.90
6206;DHT22;3136;48.788;9.772;2024-01-11T05:13:08;-7.40;1.00
6206;DHT22;3136;48.788;9.772;2024-01-11T05:15:34;-7.40;1.00
6206;DHT22;3136;48.788;9.772;2024-01-11T05:18:00;-7.40;1.00
6206;DHT22;3136;48.788;9.772;2024-01-11T05:20:25;-7.30;1.00
6206;DHT22;3136;48.788;9.772;2024-01-11T05:22:51;-7.30;1.00
6206;DHT22;3136;48.788;9.772;2024-01-11T05:25:16;-7.40;1.00
6206;DHT22;3136;48.788;9.772;2024-01-11T05:27:42;-6.40;1.00
6206;DHT22;3136;48.788;9.772;2024-01-11T05:30:08;-7.40;1.00
6206;DHT22;3136;48.788;9.772;2024-01-11T05:32:33;-7.50;1.00
6206;DHT22;3136;48.788;9.772;2024-01-11T05:34:59;-7.50;99.90
6206;DHT22;3136;48.788;9.772;2024-01-11T05:37:24;-7.50;99.90
6206;DHT22;3136;48.788;9.772;2024-01-11T05:39:50;-7.60;99.90
6206;DHT22;3136;48.788;9.772;2024-01-11T05:42:17;-7.50;1.00
6206;DHT22;3136;48.788;9.772;2024-01-11T05:44:43;-7.50;1.00
6206;DHT22;3136;48.788;9.772;2024-01-11T05:47:09;-7.40;99.90
6206;DHT22;3136;48.788;9.772;2024-01-11T05:49:34;-7.40;99.90
6206;DHT22;3136;48.788;9.772;2024-01-11T05:52:00;-7.40;1.00
6206;DHT22;3136;48.788;9.772;2024-01-11T05:54:25;-7.30;1.00
6206;DHT22;3136;48.788;9.772;2024-01-11T05:56:53;-7.20;1.00
6206;DHT22;3136;48.788;9.772;2024-01-11T05:59:21;-7.20;1.00
6206;DHT22;3136;48.788;9.772;2024-01-11T06:01:47;-7.20;1.00
6206;DHT22;3136;48.788;9.772;2024-01-11T06:04:13;-7.20;1.00
6206;DHT22;3136;48.788;9.772;2024-01-11T06:06:39;-7.20;1.00
6206;DHT22;3136;48.788;9.772;2024-01-11T06:09:04;-7.20;99.90
6206;DHT22;3136;48.788;9.772;2024-01-11T06:11:30;-7.20;45.00
6206;DHT22;3136;48.788;9.772;2024-01-11T06:13:56;-7.30;1.00
6206;DHT22;3136;48.788;9.772;2024-01-11T06:16:22;-7.30;1.00
6206;DHT22;3136;48.788;9.772;2024-01-11T06:18:48;-7.40;1.00
6206;DHT22;3136;48.788;9.772;2024-01-11T06:21:13;-7.40;1.00
6206;DHT22;3136;48.788;9.772;2024-01-11T06:23:40;-7.40;1.00
6206;DHT22;3136;48.788;9.772;2024-01-11T06:26:07;-7.50;1.00
6206;DHT22;3136;48.788;9.772;2024-01-11T06:28:33;-7.50;1.00
6206;DHT22;3136;48.788;9.772;2024-01-11T06:30:58;-7.50;54.10
6206;DHT22;3136;48.788;9.772;2024-01-11T06:33:24;-7.40;99.90
6206;DHT22;3136;48.788;9.772;2024-01-11T06:35:49;-7.50;7.10
6206;DHT22;3136;48.788;9.772;2024-01-11T06:38:15;-7.50;1.00
6206;DHT22;3136;48.788;9.772;2024-01-11T06:40:41;-7.50;1.00
6206;DHT22;3136;48.788;9.772;2024-01-11T06:43:06;-7.60;1.00
6206;DHT22;3136;48.788;9.772;2024-01-11T06:45:33;-7.50;1.00
6206;DHT22;3136;48.788;9.772;2024-01-11T06:47:59;-7.50;99.90
6206;DHT22;3136;48.788;9.772;2024-01-11T06:50:24;-7.40;99.90
6206;DHT22;3136;48.788;9.772;2024-01-11T06:52:50;-7.30;99.90
6206;DHT22;3136;48.788;9.772;2024-01-11T06:55:15;-7.40;99.90
6206;DHT22;3136;48.788;9.772;2024-01-11T06:57:41;-7.40;99.90
6206;DHT22;3136;48.788;9.772;2024-01-11T07:00:07;-7.40;1.00
6206;DHT22;3136;48.788;9.772;2024-01-11T07:02:33;-7.50;99.90
6206;DHT22;3136;48.788;9.772;2024-01-11T07:04:58;-7.50;99.90
6206;DHT22;3136;48.788;9.772;2024-01-11T07:07:24;-7.50;99.90
6206;DHT22;3136;48.788;9.772;2024-01-11T07:09:50;-7.60;99.90
6206;DHT22;3136;48.788;9.772;2024-01-11T07:12:15;-7.60;99.90
6206;DHT22;3136;48.788;9.772;2024-01-11T07:14:42;-7.70;1.00
6206;DHT22;3136;48.788;9.772;2024-01-11T07:17:07;-7.50;1.00
6206;DHT22;3136;48.788;9.772;2024-01-11T07:19:33;-7.50;1.00
6206;DHT22;3136;48.788;9.772;2024-01-11T07:21:58;-7.50;1.00
6206;DHT22;3136;48.788;9.772;2024-01-11T07:24:24;-7.50;1.00
6206;DHT22;3136;48.788;9.772;2024-01-11T07:26:50;-7.50;1.00
6206;DHT22;3136;48.788;9.772;2024-01-11T07:29:16;-7.50;1.00
6206;DHT22;3136;48.788;9.772;2024-01-11T07:31:41;-7.50;99.90
6206;DHT22;3136;48.788;9.772;2024-01-11T07:34:07;-7.50;1.00
6206;DHT22;3136;48.788;9.772;2024-01-11T07:36:32;-7.50;1.00
6206;DHT22;3136;48.788;9.772;2024-01-11T07:38:58;-7.40;1.00
6206;DHT22;3136;48.788;9.772;2024-01-11T07:41:23;-7.40;99.90
6206;DHT22;3136;48.788;9.772;2024-01-11T07:43:49;-7.40;99.90
6206;DHT22;3136;48.788;9.772;2024-01-11T07:46:15;-7.40;1.00
6206;DHT22;3136;48.788;9.772;2024-01-11T07:48:40;-7.30;1.00
6206;DHT22;3136;48.788;9.772;2024-01-11T07:51:06;-7.30;99.90
6206;DHT22;3136;48.788;9.772;2024-01-11T07:53:33;-7.30;99.90
6206;DHT22;3136;48.788;9.772;2024-01-11T07:55:58;-7.10;99.90
6206;DHT22;3136;48.788;9.772;2024-01-11T07:58:24;-7.30;99.90
6206;DHT22;3136;48.788;9.772;2024-01-11T08:00:49;-7.20;99.90
6206;DHT22;3136;48.788;9.772;2024-01-11T08:03:15;-7.10;1.00
6206;DHT22;3136;48.788;9.772;2024-01-11T08:05:41;-7.10;1.00
6206;DHT22;3136;48.788;9.772;2024-01-11T08:08:08;-7.00;99.90
6206;DHT22;3136;48.788;9.772;2024-01-11T08:10:34;-6.90;99.90
6206;DHT22;3136;48.788;9.772;2024-01-11T08:13:00;-7.00;99.90
6206;DHT22;3136;48.788;9.772;2024-01-11T08:15:25;-6.90;1.00
6206;DHT22;3136;48.788;9.772;2024-01-11T08:17:51;-6.80;1.00
6206;DHT22;3136;48.788;9.772;2024-01-11T08:20:16;-6.80;1.00
6206;DHT22;3136;48.788;9.772;2024-01-11T08:22:42;-6.70;1.00
6206;DHT22;3136;48.788;9.772;2024-01-11T08:25:12;-6.60;99.90
6206;DHT22;3136;48.788;9.772;2024-01-11T08:27:38;-6.60;71.10
6206;DHT22;3136;48.788;9.772;2024-01-11T08:30:04;-6.60;1.00
6206;DHT22;3136;48.788;9.772;2024-01-11T08:32:30;-6.60;1.00
6206;DHT22;3136;48.788;9.772;2024-01-11T08:34:59;-6.50;99.90
6206;DHT22;3136;48.788;9.772;2024-01-11T08:37:24;-6.40;99.90
6206;DHT22;3136;48.788;9.772;2024-01-11T08:39:50;-6.40;99.90
6206;DHT22;3136;48.788;9.772;2024-01-11T08:42:16;-6.30;1.00
6206;DHT22;3136;48.788;9.772;2024-01-11T08:44:42;-6.20;1.00
6206;DHT22;3136;48.788;9.772;2024-01-11T08:47:08;-6.10;99.90
6206;DHT22;3136;48.788;9.772;2024-01-11T08:49:36;-6.00;99.90
6206;DHT22;3136;48.788;9.772;2024-01-11T08:52:02;-5.90;60.30
6206;DHT22;3136;48.788;9.772;2024-01-11T08:54:28;-5.80;1.00
6206;DHT22;3136;48.788;9.772;2024-01-11T08:56:53;-5.60;99.90
6206;DHT22;3136;48.788;9.772;2024-01-11T08:59:19;-5.60;1.00
6206;DHT22;3136;48.788;9.772;2024-01-11T09:01:44;-5.50;1.00
6206;DHT22;3136;48.788;9.772;2024-01-11T09:04:10;-4.70;1.00
6206;DHT22;3136;48.788;9.772;2024-01-11T09:06:35;-5.40;1.00
6206;DHT22;3136;48.788;9.772;2024-01-11T09:09:01;-5.20;1.00
6206;DHT22;3136;48.788;9.772;2024-01-11T09:11:26;-5.10;1.00
6206;DHT22;3136;48.788;9.772;2024-01-11T09:13:52;-5.00;1.00
6206;DHT22;3136;48.788;9.772;2024-01-11T09:16:18;-4.90;1.00
6206;DHT22;3136;48.788;9.772;2024-01-11T09:18:44;-4.70;1.00
6206;DHT22;3136;48.788;9.772;2024-01-11T09:21:10;-4.60;99.90
6206;DHT22;3136;48.788;9.772;2024-01-11T09:23:36;-4.50;99.90
6206;DHT22;3136;48.788;9.772;2024-01-11T09:26:02;-4.30;99.90
6206;DHT22;3136;48.788;9.772;2024-01-11T09:28:27;-4.20;1.00
6206;DHT22;3136;48.788;9.772;2024-01-11T09:30:53;-4.10;1.00
6206;DHT22;3136;48.788;9.772;2024-01-11T09:33:19;-4.00;99.90
6206;DHT22;3136;48.788;9.772;2024-01-11T09:35:45;-3.90;1.00
6206;DHT22;3136;48.788;9.772;2024-01-11T09:38:10;-3.80;1.00
6206;DHT22;3136;48.788;9.772;2024-01-11T09:40:36;-3.70;1.00
6206;DHT22;3136;48.788;9.772;2024-01-11T09:43:03;-3.50;11.40
6206;DHT22;3136;48.788;9.772;2024-01-11T09:45:30;-3.40;1.00
6206;DHT22;3136;48.788;9.772;2024-01-11T09:47:55;-3.20;1.00
6206;DHT22;3136;48.788;9.772;2024-01-11T09:50:21;-3.00;1.00
6206;DHT22;3136;48.788;9.772;2024-01-11T09:52:48;-2.50;99.90
6206;DHT22;3136;48.788;9.772;2024-01-11T09:55:14;-1.70;1.00
6206;DHT22;3136;48.788;9.772;2024-01-11T09:57:43;-1.10;1.00
6206;DHT22;3136;48.788;9.772;2024-01-11T10:00:13;-0.50;1.00
6206;DHT22;3136;48.788;9.772;2024-01-11T10:02:39;0.10;99.90
6206;DHT22;3136;48.788;9.772;2024-01-11T10:05:05;1.00;99.90
6206;DHT22;3136;48.788;9.772;2024-01-11T10:07:32;1.30;99.90
6206;DHT22;3136;48.788;9.772;2024-01-11T10:09:59;1.60;99.90
6206;DHT22;3136;48.788;9.772;2024-01-11T10:12:27;1.90;99.90
6206;DHT22;3136;48.788;9.772;2024-01-11T10:14:53;2.20;99.90
6206;DHT22;3136;48.788;9.772;2024-01-11T10:17:19;2.70;99.90
6206;DHT22;3136;48.788;9.772;2024-01-11T10:19:45;2.70;99.90
6206;DHT22;3136;48.788;9.772;2024-01-11T10:22:10;2.40;99.90
6206;DHT22;3136;48.788;9.772;2024-01-11T10:24:42;2.30;99.90
6206;DHT22;3136;48.788;9.772;2024-01-11T10:27:11;2.20;99.90
6206;DHT22;3136;48.788;9.772;2024-01-11T10:29:37;1.90;99.90
6206;DHT22;3136;48.788;9.772;2024-01-11T10:32:05;1.70;99.90
6206;DHT22;3136;48.788;9.772;2024-01-11T10:34:31;1.60;99.90
6206;DHT22;3136;48.788;9.772;2024-01-11T10:36:57;1.60;99.90
6206;DHT22;3136;48.788;9.772;2024-01-11T10:39:25;1.70;99.90
6206;DHT22;3136;48.788;9.772;2024-01-11T10:42:05;1.60;99.90
6206;DHT22;3136;48.788;9.772;2024-01-11T10:44:33;1.30;99.90
6206;DHT22;3136;48.788;9.772;2024-01-11T10:46:59;1.30;99.90
6206;DHT22;3136;48.788;9.772;2024-01-11T10:49:27;1.40;99.90
6206;DHT22;3136;48.788;9.772;2024-01-11T10:52:00;1.70;99.90
6206;DHT22;3136;48.788;9.772;2024-01-11T10:54:28;1.70;99.90
6206;DHT22;3136;48.788;9.772;2024-01-11T10:56:56;1.60;99.90
6206;DHT22;3136;48.788;9.772;2024-01-11T10:59:24;1.40;99.90
6206;DHT22;3136;48.788;9.772;2024-01-11T11:01:56;1.60;99.90
6206;DHT22;3136;48.788;9.772;2024-01-11T11:04:23;1.60;99.90
6206;DHT22;3136;48.788;9.772;2024-01-11T11:06:51;1.80;99.90
6206;DHT22;3136;48.788;9.772;2024-01-11T11:09:20;2.00;99.90
6206;DHT22;3136;48.788;9.772;2024-01-11T11:11:47;1.90;99.90
6206;DHT22;3136;48.788;9.772;2024-01-11T11:14:14;2.20;99.90
6206;DHT22;3136;48.788;9.772;2024-01-11T11:16:41;2.30;99.90
6206;DHT22;3136;48.788;9.772;2024-01-11T11:19:07;2.40;99.90
6206;DHT22;3136;48.788;9.772;2024-01-11T11:21:32;2.50;99.90
6206;DHT22;3136;48.788;9.772;2024-01-11T11:23:58;2.60;99.90
6206;DHT22;3136;48.788;9.772;2024-01-11T11:26:26;2.50;99.90
6206;DHT22;3136;48.788;9.772;2024-01-11T11:28:52;2.70;99.90
6206;DHT22;3136;48.788;9.772;2024-01-11T11:31:43;2.80;99.90
6206;DHT22;3136;48.788;9.772;2024-01-11T11:34:12;2.90;99.90
6206;DHT22;3136;48.788;9.772;2024-01-11T11:36:40;3.00;99.90
6206;DHT22;3136;48.788;9.772;2024-01-11T11:39:05;3.20;99.90
6206;DHT22;3136;48.788;9.772;2024-01-11T11:41:31;3.60;99.90
6206;DHT22;3136;48.788;9.772;2024-01-11T11:44:04;3.80;99.90
6206;DHT22;3136;48.788;9.772;2024-01-11T11:46:30;3.70;99.90
6206;DHT22;3136;48.788;9.772;2024-01-11T11:48:56;3.90;99.90
6206;DHT22;3136;48.788;9.772;2024-01-11T11:51:23;3.80;99.90
6206;DHT22;3136;48.788;9.772;2024-01-11T11:53:50;3.90;99.90
6206;DHT22;3136;48.788;9.772;2024-01-11T11:56:20;3.90;99.90
6206;DHT22;3136;48.788;9.772;2024-01-11T11:58:47;4.10;99.90
6206;DHT22;3136;48.788;9.772;2024-01-11T12:01:14;4.10;99.90
6206;DHT22;3136;48.788;9.772;2024-01-11T12:03:44;3.90;99.90
6206;DHT22;3136;48.788;9.772;2024-01-11T12:06:21;3.80;99.90
6206;DHT22;3136;48.788;9.772;2024-01-11T12:08:49;3.60;99.90
6206;DHT22;3136;48.788;9.772;2024-01-11T12:11:19;3.60;99.90
6206;DHT22;3136;48.788;9.772;2024-01-11T12:13:45;3.60;99.90
6206;DHT22;3136;48.788;9.772;2024-01-11T12:16:12;3.60;99.90
6206;DHT22;3136;48.788;9.772;2024-01-11T12:18:37;3.70;99.90
6206;DHT22;3136;48.788;9.772;2024-01-11T12:21:03;3.80;99.90
6206;DHT22;3136;48.788;9.772;2024-01-11T12:23:29;3.80;99.90
6206;DHT22;3136;48.788;9.772;2024-01-11T12:26:01;4.00;99.90
6206;DHT22;3136;48.788;9.772;2024-01-11T12:28:27;4.20;99.90
6206;DHT22;3136;48.788;9.772;2024-01-11T12:30:53;4.10;99.90
6206;DHT22;3136;48.788;9.772;2024-01-11T12:33:19;4.10;99.90
6206;DHT22;3136;48.788;9.772;2024-01-11T12:35:46;4.30;99.90
6206;DHT22;3136;48.788;9.772;2024-01-11T12:38:12;4.60;99.90
6206;DHT22;3136;48.788;9.772;2024-01-11T12:40:38;4.70;99.90
6206;DHT22;3136;48.788;9.772;2024-01-11T12:43:07;4.70;99.90
6206;DHT22;3136;48.788;9.772;2024-01-11T12:45:34;4.90;99.90
6206;DHT22;3136;48.788;9.772;2024-01-11T12:48:01;4.90;99.90
6206;DHT22;3136;48.788;9.772;2024-01-11T12:50:31;5.00;99.90
6206;DHT22;3136;48.788;9.772;2024-01-11T12:53:10;5.20;99.90
6206;DHT22;3136;48.788;9.772;2024-01-11T12:55:42;5.20;99.90
6206;DHT22;3136;48.788;9.772;2024-01-11T12:58:08;5.20;99.90
6206;DHT22;3136;48.788;9.772;2024-01-11T13:00:37;5.20;99.30
6206;DHT22;3136;48.788;9.772;2024-01-11T13:03:04;5.00;99.90
6206;DHT22;3136;48.788;9.772;2024-01-11T13:05:31;5.00;99.90
6206;DHT22;3136;48.788;9.772;2024-01-11T13:08:10;5.10;99.90
6206;DHT22;3136;48.788;9.772;2024-01-11T13:10:36;5.80;98.40
6206;DHT22;3136;48.788;9.772;2024-01-11T13:13:04;6.80;94.90
6206;DHT22;3136;48.788;9.772;2024-01-11T13:15:31;7.60;92.90
6206;DHT22;3136;48.788;9.772;2024-01-11T13:18:00;8.10;91.80
6206;DHT22;3136;48.788;9.772;2024-01-11T13:20:27;8.60;92.10
6206;DHT22;3136;48.788;9.772;2024-01-11T13:23:14;8.80;90.80
6206;DHT22;3136;48.788;9.772;2024-01-11T13:25:44;8.80;90.70
6206;DHT22;3136;48.788;9.772;2024-01-11T13:28:10;8.90;90.10
6206;DHT22;3136;48.788;9.772;2024-01-11T13:30:37;8.80;90.30
6206;DHT22;3136;48.788;9.772;2024-01-11T13:33:04;8.50;89.60
6206;DHT22;3136;48.788;9.772;2024-01-11T13:35:30;8.00;88.60
6206;DHT22;3136;48.788;9.772;2024-01-11T13:37:55;6.90;90.20
6206;DHT22;3136;48.788;9.772;2024-01-11T13:40:21;5.80;90.80
6206;DHT22;3136;48.788;9.772;2024-01-11T13:42:46;5.10;91.30
6206;DHT22;3136;48.788;9.772;2024-01-11T13:45:12;4.40;93.80
6206;DHT22;3136;48.788;9.772;2024-01-11T13:47:38;4.00;97.50
6206;DHT22;3136;48.788;9.772;2024-01-11T13:50:04;3.70;99.90
6206;DHT22;3136;48.788;9.772;2024-01-11T13:52:30;3.30;99.90
6206;DHT22;3136;48.788;9.772;2024-01-11T13:54:55;3.10;99.90
6206;DHT22;3136;48.788;9.772;2024-01-11T13:57:21;2.90;99.90
6206;DHT22;3136;48.788;9.772;2024-01-11T13:59:47;2.70;99.90
6206;DHT22;3136;48.788;9.772;2024-01-11T14:02:13;2.60;99.90
6206;DHT22;3136;48.788;9.772;2024-01-11T14:04:38;2.50;99.90
6206;DHT22;3136;48.788;9.772;2024-01-11T14:07:05;2.40;99.90
6206;DHT22;3136;48.788;9.772;2024-01-11T14:09:30;2.30;99.90
6206;DHT22;3136;48.788;9.772;2024-01-11T14:11:56;2.20;99.90
6206;DHT22;3136;48.788;9.772;2024-01-11T14:14:22;2.10;99.90
6206;DHT22;3136;48.788;9.772;2024-01-11T14:16:47;2.10;99.90
6206;DHT22;3136;48.788;9.772;2024-01-11T14:19:13;2.00;99.90
6206;DHT22;3136;48.788;9.772;2024-01-11T14:21:39;1.90;99.90
6206;DHT22;3136;48.788;9.772;2024-01-11T14:24:05;1.80;99.90
6206;DHT22;3136;48.788;9.772;2024-01-11T14:26:33;1.70;99.90
6206;DHT22;3136;48.788;9.772;2024-01-11T14:28:59;1.70;99.90
6206;DHT22;3136;48.788;9.772;2024-01-11T14:31:26;1.60;99.90
6206;DHT22;3136;48.788;9.772;2024-01-11T14:33:52;1.50;99.90
6206;DHT22;3136;48.788;9.772;2024-01-11T14:36:17;1.50;99.90
6206;DHT22;3136;48.788;9.772;2024-01-11T14:38:43;1.40;99.90
6206;DHT22;3136;48.788;9.772;2024-01-11T14:41:09;1.40;99.90
6206;DHT22;3136;48.788;9.772;2024-01-11T14:43:35;1.30;99.90
6206;DHT22;3136;48.788;9.772;2024-01-11T14:46:01;1.20;99.90
6206;DHT22;3136;48.788;9.772;2024-01-11T14:48:27;1.20;99.90
6206;DHT22;3136;48.788;9.772;2024-01-11T14:50:56;1.00;99.90
6206;DHT22;3136;48.788;9.772;2024-01-11T14:53:22;0.80;99.90
6206;DHT22;3136;48.788;9.772;2024-01-11T14:55:48;0.70;99.90
6206;DHT22;3136;48.788;9.772;2024-01-11T14:58:14;0.50;99.90
6206;DHT22;3136;48.788;9.772;2024-01-11T15:00:40;0.40;99.90
6206;DHT22;3136;48.788;9.772;2024-01-11T15:03:06;0.20;99.90
6206;DHT22;3136;48.788;9.772;2024-01-11T15:05:31;0.00;99.90
6206;DHT22;3136;48.788;9.772;2024-01-11T15:07:57;-0.10;99.90
6206;DHT22;3136;48.788;9.772;2024-01-11T15:10:22;-0.30;99.90
6206;DHT22;3136;48.788;9.772;2024-01-11T15:12:48;-0.40;99.90
6206;DHT22;3136;48.788;9.772;2024-01-11T15:15:14;-0.50;99.90
6206;DHT22;3136;48.788;9.772;2024-01-11T15:17:39;-0.60;99.90
6206;DHT22;3136;48.788;9.772;2024-01-11T15:20:05;-0.70;99.90
6206;DHT22;3136;48.788;9.772;2024-01-11T15:22:32;-0.80;99.90
6206;DHT22;3136;48.788;9.772;2024-01-11T15:24:57;-0.90;99.90
6206;DHT22;3136;48.788;9.772;2024-01-11T15:27:23;-1.00;99.90
6206;DHT22;3136;48.788;9.772;2024-01-11T15:29:49;-1.20;99.90
6206;DHT22;3136;48.788;9.772;2024-01-11T15:32:17;-1.20;99.90
6206;DHT22;3136;48.788;9.772;2024-01-11T15:34:43;-1.30;1.00
6206;DHT22;3136;48.788;9.772;2024-01-11T15:37:09;-1.40;1.00
6206;DHT22;3136;48.788;9.772;2024-01-11T15:39:35;-1.50;1.00
6206;DHT22;3136;48.788;9.772;2024-01-11T15:42:03;-1.50;1.00
6206;DHT22;3136;48.788;9.772;2024-01-11T15:44:29;-1.70;1.00
6206;DHT22;3136;48.788;9.772;2024-01-11T15:46:56;-1.70;1.00
6206;DHT22;3136;48.788;9.772;2024-01-11T15:49:22;-1.80;1.00
6206;DHT22;3136;48.788;9.772;2024-01-11T15:51:48;-1.90;1.00
6206;DHT22;3136;48.788;9.772;2024-01-11T15:54:13;-2.00;1.00
6206;DHT22;3136;48.788;9.772;2024-01-11T15:56:39;-2.00;1.00
6206;DHT22;3136;48.788;9.772;2024-01-11T15:59:05;-2.10;1.00
6206;DHT22;3136;48.788;9.772;2024-01-11T16:01:32;-2.20;1.00
6206;DHT22;3136;48.788;9.772;2024-01-11T16:04:00;-2.20;1.00
6206;DHT22;3136;48.788;9.772;2024-01-11T16:06:27;-2.30;1.00
6206;DHT22;3136;48.788;9.772;2024-01-11T16:08:52;-2.30;1.00